sensor_id;sensor_type;location;lat;lon;timestamp;P1;durP1;ratioP1;P2;durP2;ratioP2
63714;SDS011;49858;48.956;9.076;2022-07-29T00:01:39;0.43;;;0.43;;
63714;SDS011;49858;48.956;9.076;2022-07-29T00:04:05;0.30;;;0.25;;
63714;SDS011;49858;48.956;9.076;2022-07-29T00:06:32;1.75;;;0.50;;
63714;SDS011;49858;48.956;9.076;2022-07-29T00:08:59;0.73;;;0.50;;
63714;SDS011;49858;48.956;9.076;2022-07-29T00:11:25;1.42;;;0.80;;
63714;SDS011;49858;48.956;9.076;2022-07-29T00:13:52;1.60;;;1.50;;
63714;SDS011;49858;48.956;9.076;2022-07-29T00:16:19;1.05;;;0.90;;
63714;SDS011;49858;48.956;9.076;2022-07-29T00:18:47;0.30;;;0.30;;
63714;SDS011;49858;48.956;9.076;2022-07-29T00:21:13;0.45;;;0.30;;
63714;SDS011;49858;48.956;9.076;2022-07-29T00:23:40;0.65;;;0.65;;
63714;SDS011;49858;48.956;9.076;2022-07-29T00:26:07;0.38;;;0.38;;
63714;SDS011;49858;48.956;9.076;2022-07-29T00:28:33;0.68;;;0.68;;
63714;SDS011;49858;48.956;9.076;2022-07-29T00:31:00;0.22;;;0.20;;
63714;SDS011;49858;48.956;9.076;2022-07-29T00:33:27;0.70;;;0.30;;
63714;SDS011;49858;48.956;9.076;2022-07-29T00:35:56;0.40;;;0.40;;
63714;SDS011;49858;48.956;9.076;2022-07-29T00:38:21;1.55;;;1.08;;
63714;SDS011;49858;48.956;9.076;2022-07-29T00:40:48;1.50;;;1.40;;
63714;SDS011;49858;48.956;9.076;2022-07-29T00:43:16;0.10;;;0.10;;
63714;SDS011;49858;48.956;9.076;2022-07-29T00:45:43;1.33;;;0.63;;
63714;SDS011;49858;48.956;9.076;2022-07-29T00:48:10;0.75;;;0.75;;
63714;SDS011;49858;48.956;9.076;2022-07-29T00:50:37;0.65;;;0.65;;
63714;SDS011;49858;48.956;9.076;2022-07-29T00:53:05;0.30;;;0.30;;
63714;SDS011;49858;48.956;9.076;2022-07-29T00:55:33;0.63;;;0.40;;
63714;SDS011;49858;48.956;9.076;2022-07-29T00:58:00;0.20;;;0.20;;
63714;SDS011;49858;48.956;9.076;2022-07-29T01:00:28;1.40;;;0.65;;
63714;SDS011;49858;48.956;9.076;2022-07-29T01:02:55;1.17;;;1.08;;
63714;SDS011;49858;48.956;9.076;2022-07-29T01:05:23;0.65;;;0.65;;
63714;SDS011;49858;48.956;9.076;2022-07-29T01:07:51;1.13;;;0.63;;
63714;SDS011;49858;48.956;9.076;2022-07-29T01:10:21;0.68;;;0.35;;
63714;SDS011;49858;48.956;9.076;2022-07-29T01:12:49;3.50;;;2.13;;
63714;SDS011;49858;48.956;9.076;2022-07-29T01:15:17;1.00;;;0.88;;
63714;SDS011;49858;48.956;9.076;2022-07-29T01:17:44;0.75;;;0.75;;
63714;SDS011;49858;48.956;9.076;2022-07-29T01:20:17;1.95;;;0.73;;
63714;SDS011;49858;48.956;9.076;2022-07-29T01:22:53;0.70;;;0.70;;
63714;SDS011;49858;48.956;9.076;2022-07-29T01:25:46;0.70;;;0.52;;
63714;SDS011;49858;48.956;9.076;2022-07-29T01:31:16;0.25;;;0.25;;
63714;SDS011;49858;48.956;9.076;2022-07-29T01:33:48;2.08;;;0.93;;
63714;SDS011;49858;48.956;9.076;2022-07-29T01:36:22;3.05;;;1.05;;
63714;SDS011;49858;48.956;9.076;2022-07-29T01:38:54;0.10;;;0.10;;
63714;SDS011;49858;48.956;9.076;2022-07-29T01:41:28;1.55;;;0.52;;
63714;SDS011;49858;48.956;9.076;2022-07-29T01:44:01;0.10;;;0.10;;
63714;SDS011;49858;48.956;9.076;2022-07-29T01:46:34;0.65;;;0.52;;
63714;SDS011;49858;48.956;9.076;2022-07-29T01:49:05;0.43;;;0.43;;
63714;SDS011;49858;48.956;9.076;2022-07-29T01:51:38;0.30;;;0.30;;
63714;SDS011;49858;48.956;9.076;2022-07-29T01:54:10;0.32;;;0.32;;
63714;SDS011;49858;48.956;9.076;2022-07-29T01:56:42;3.13;;;0.70;;
63714;SDS011;49858;48.956;9.076;2022-07-29T01:59:12;0.55;;;0.20;;
63714;SDS011;49858;48.956;9.076;2022-07-29T02:01:40;0.50;;;0.35;;
63714;SDS011;49858;48.956;9.076;2022-07-29T02:04:10;0.60;;;0.60;;
63714;SDS011;49858;48.956;9.076;2022-07-29T02:06:38;0.30;;;0.30;;
63714;SDS011;49858;48.956;9.076;2022-07-29T02:09:07;0.73;;;0.73;;
63714;SDS011;49858;48.956;9.076;2022-07-29T02:11:36;1.10;;;0.68;;
63714;SDS011;49858;48.956;9.076;2022-07-29T02:14:05;0.50;;;0.50;;
63714;SDS011;49858;48.956;9.076;2022-07-29T02:16:34;0.50;;;0.50;;
63714;SDS011;49858;48.956;9.076;2022-07-29T02:19:06;0.73;;;0.65;;
63714;SDS011;49858;48.956;9.076;2022-07-29T02:21:34;0.47;;;0.38;;
63714;SDS011;49858;48.956;9.076;2022-07-29T02:24:02;0.82;;;0.82;;
63714;SDS011;49858;48.956;9.076;2022-07-29T02:26:30;0.43;;;0.40;;
63714;SDS011;49858;48.956;9.076;2022-07-29T02:28:59;0.47;;;0.47;;
63714;SDS011;49858;48.956;9.076;2022-07-29T02:31:29;0.70;;;0.60;;
63714;SDS011;49858;48.956;9.076;2022-07-29T02:34:01;1.65;;;1.30;;
63714;SDS011;49858;48.956;9.076;2022-07-29T02:36:29;0.30;;;0.30;;
63714;SDS011;49858;48.956;9.076;2022-07-29T02:38:57;0.77;;;0.77;;
63714;SDS011;49858;48.956;9.076;2022-07-29T02:41:27;0.80;;;0.70;;
63714;SDS011;49858;48.956;9.076;2022-07-29T02:43:55;1.35;;;0.57;;
63714;SDS011;49858;48.956;9.076;2022-07-29T02:46:26;0.17;;;0.17;;
63714;SDS011;49858;48.956;9.076;2022-07-29T02:48:57;0.32;;;0.32;;
63714;SDS011;49858;48.956;9.076;2022-07-29T02:51:40;0.40;;;0.40;;
63714;SDS011;49858;48.956;9.076;2022-07-29T02:54:09;0.32;;;0.32;;
63714;SDS011;49858;48.956;9.076;2022-07-29T02:56:37;0.50;;;0.50;;
63714;SDS011;49858;48.956;9.076;2022-07-29T02:59:08;0.50;;;0.50;;
63714;SDS011;49858;48.956;9.076;2022-07-29T03:01:39;1.33;;;0.95;;
63714;SDS011;49858;48.956;9.076;2022-07-29T03:04:07;1.73;;;0.68;;
63714;SDS011;49858;48.956;9.076;2022-07-29T03:06:37;0.17;;;0.17;;
63714;SDS011;49858;48.956;9.076;2022-07-29T03:09:04;0.30;;;0.30;;
63714;SDS011;49858;48.956;9.076;2022-07-29T03:11:33;2.40;;;0.95;;
63714;SDS011;49858;48.956;9.076;2022-07-29T03:14:01;0.73;;;0.63;;
63714;SDS011;49858;48.956;9.076;2022-07-29T03:16:28;1.65;;;0.50;;
63714;SDS011;49858;48.956;9.076;2022-07-29T03:18:55;0.50;;;0.50;;
63714;SDS011;49858;48.956;9.076;2022-07-29T03:21:22;1.13;;;0.73;;
63714;SDS011;49858;48.956;9.076;2022-07-29T03:23:50;0.63;;;0.63;;
63714;SDS011;49858;48.956;9.076;2022-07-29T03:26:17;0.47;;;0.38;;
63714;SDS011;49858;48.956;9.076;2022-07-29T03:28:45;0.30;;;0.30;;
63714;SDS011;49858;48.956;9.076;2022-07-29T03:31:13;0.52;;;0.47;;
63714;SDS011;49858;48.956;9.076;2022-07-29T03:33:39;0.45;;;0.40;;
63714;SDS011;49858;48.956;9.076;2022-07-29T03:36:06;0.22;;;0.22;;
63714;SDS011;49858;48.956;9.076;2022-07-29T03:38:33;0.32;;;0.32;;
63714;SDS011;49858;48.956;9.076;2022-07-29T03:41:03;1.08;;;0.40;;
63714;SDS011;49858;48.956;9.076;2022-07-29T03:43:34;1.33;;;0.60;;
63714;SDS011;49858;48.956;9.076;2022-07-29T03:46:05;0.73;;;0.50;;
63714;SDS011;49858;48.956;9.076;2022-07-29T03:48:34;0.65;;;0.63;;
63714;SDS011;49858;48.956;9.076;2022-07-29T03:51:05;1.50;;;0.68;;
63714;SDS011;49858;48.956;9.076;2022-07-29T03:53:32;0.85;;;0.45;;
63714;SDS011;49858;48.956;9.076;2022-07-29T03:56:00;0.38;;;0.38;;
63714;SDS011;49858;48.956;9.076;2022-07-29T03:58:32;2.53;;;0.43;;
63714;SDS011;49858;48.956;9.076;2022-07-29T04:00:59;1.42;;;0.98;;
63714;SDS011;49858;48.956;9.076;2022-07-29T04:03:26;0.38;;;0.38;;
63714;SDS011;49858;48.956;9.076;2022-07-29T04:05:59;0.90;;;0.90;;
63714;SDS011;49858;48.956;9.076;2022-07-29T04:08:27;0.20;;;0.20;;
63714;SDS011;49858;48.956;9.076;2022-07-29T04:10:54;1.65;;;0.95;;
63714;SDS011;49858;48.956;9.076;2022-07-29T04:13:22;0.70;;;0.38;;
63714;SDS011;49858;48.956;9.076;2022-07-29T04:15:49;0.45;;;0.45;;
63714;SDS011;49858;48.956;9.076;2022-07-29T04:18:16;0.38;;;0.35;;
63714;SDS011;49858;48.956;9.076;2022-07-29T04:20:43;0.63;;;0.60;;
63714;SDS011;49858;48.956;9.076;2022-07-29T04:23:09;0.60;;;0.60;;
63714;SDS011;49858;48.956;9.076;2022-07-29T04:25:37;1.30;;;0.98;;
63714;SDS011;49858;48.956;9.076;2022-07-29T04:28:04;1.20;;;0.38;;
63714;SDS011;49858;48.956;9.076;2022-07-29T04:30:33;1.77;;;0.75;;
63714;SDS011;49858;48.956;9.076;2022-07-29T04:33:00;0.30;;;0.30;;
63714;SDS011;49858;48.956;9.076;2022-07-29T04:35:27;0.93;;;0.65;;
63714;SDS011;49858;48.956;9.076;2022-07-29T04:37:54;1.25;;;0.63;;
63714;SDS011;49858;48.956;9.076;2022-07-29T04:40:21;0.20;;;0.20;;
63714;SDS011;49858;48.956;9.076;2022-07-29T04:42:47;0.32;;;0.32;;
63714;SDS011;49858;48.956;9.076;2022-07-29T04:45:14;0.80;;;0.80;;
63714;SDS011;49858;48.956;9.076;2022-07-29T04:47:42;2.67;;;0.93;;
63714;SDS011;49858;48.956;9.076;2022-07-29T04:50:09;0.25;;;0.25;;
63714;SDS011;49858;48.956;9.076;2022-07-29T04:52:36;0.68;;;0.45;;
63714;SDS011;49858;48.956;9.076;2022-07-29T04:55:03;3.15;;;0.70;;
63714;SDS011;49858;48.956;9.076;2022-07-29T04:57:30;0.93;;;0.85;;
63714;SDS011;49858;48.956;9.076;2022-07-29T04:59:57;1.50;;;1.40;;
63714;SDS011;49858;48.956;9.076;2022-07-29T05:02:24;0.20;;;0.20;;
63714;SDS011;49858;48.956;9.076;2022-07-29T05:04:52;0.93;;;0.50;;
63714;SDS011;49858;48.956;9.076;2022-07-29T05:07:19;0.28;;;0.28;;
63714;SDS011;49858;48.956;9.076;2022-07-29T05:09:46;3.03;;;2.30;;
63714;SDS011;49858;48.956;9.076;2022-07-29T05:12:12;0.63;;;0.63;;
63714;SDS011;49858;48.956;9.076;2022-07-29T05:14:39;0.40;;;0.40;;
63714;SDS011;49858;48.956;9.076;2022-07-29T05:17:05;0.10;;;0.10;;
63714;SDS011;49858;48.956;9.076;2022-07-29T05:19:32;0.35;;;0.35;;
63714;SDS011;49858;48.956;9.076;2022-07-29T05:22:00;7.55;;;0.60;;
63714;SDS011;49858;48.956;9.076;2022-07-29T05:24:27;1.02;;;0.63;;
63714;SDS011;49858;48.956;9.076;2022-07-29T05:26:54;0.45;;;0.43;;
63714;SDS011;49858;48.956;9.076;2022-07-29T05:29:20;0.82;;;0.82;;
63714;SDS011;49858;48.956;9.076;2022-07-29T05:31:47;0.20;;;0.20;;
63714;SDS011;49858;48.956;9.076;2022-07-29T05:34:14;0.38;;;0.38;;
63714;SDS011;49858;48.956;9.076;2022-07-29T05:36:40;0.63;;;0.63;;
63714;SDS011;49858;48.956;9.076;2022-07-29T05:39:09;0.05;;;0.05;;
63714;SDS011;49858;48.956;9.076;2022-07-29T05:41:35;0.90;;;0.70;;
63714;SDS011;49858;48.956;9.076;2022-07-29T05:44:02;0.65;;;0.65;;
63714;SDS011;49858;48.956;9.076;2022-07-29T05:46:28;1.35;;;0.60;;
63714;SDS011;49858;48.956;9.076;2022-07-29T05:48:58;0.52;;;0.45;;
63714;SDS011;49858;48.956;9.076;2022-07-29T05:51:24;0.77;;;0.40;;
63714;SDS011;49858;48.956;9.076;2022-07-29T05:53:51;0.47;;;0.47;;
63714;SDS011;49858;48.956;9.076;2022-07-29T05:56:19;0.55;;;0.55;;
63714;SDS011;49858;48.956;9.076;2022-07-29T05:58:46;0.57;;;0.57;;
63714;SDS011;49858;48.956;9.076;2022-07-29T06:01:12;0.60;;;0.60;;
63714;SDS011;49858;48.956;9.076;2022-07-29T06:03:39;0.65;;;0.50;;
63714;SDS011;49858;48.956;9.076;2022-07-29T06:06:06;4.00;;;0.68;;
63714;SDS011;49858;48.956;9.076;2022-07-29T06:08:33;0.95;;;0.68;;
63714;SDS011;49858;48.956;9.076;2022-07-29T06:11:01;0.85;;;0.85;;
63714;SDS011;49858;48.956;9.076;2022-07-29T06:13:29;0.80;;;0.25;;
63714;SDS011;49858;48.956;9.076;2022-07-29T06:15:56;0.30;;;0.30;;
63714;SDS011;49858;48.956;9.076;2022-07-29T06:18:23;0.50;;;0.50;;
63714;SDS011;49858;48.956;9.076;2022-07-29T06:20:49;0.10;;;0.10;;
63714;SDS011;49858;48.956;9.076;2022-07-29T06:23:16;1.65;;;1.55;;
63714;SDS011;49858;48.956;9.076;2022-07-29T06:25:43;0.63;;;0.50;;
63714;SDS011;49858;48.956;9.076;2022-07-29T06:28:10;0.28;;;0.25;;
63714;SDS011;49858;48.956;9.076;2022-07-29T06:30:38;3.15;;;1.30;;
63714;SDS011;49858;48.956;9.076;2022-07-29T06:33:05;0.50;;;0.50;;
63714;SDS011;49858;48.956;9.076;2022-07-29T06:35:33;0.52;;;0.52;;
63714;SDS011;49858;48.956;9.076;2022-07-29T06:38:00;0.75;;;0.65;;
63714;SDS011;49858;48.956;9.076;2022-07-29T06:40:27;0.98;;;0.90;;
63714;SDS011;49858;48.956;9.076;2022-07-29T06:43:17;1.27;;;0.95;;
63714;SDS011;49858;48.956;9.076;2022-07-29T06:45:45;4.05;;;1.08;;
63714;SDS011;49858;48.956;9.076;2022-07-29T06:48:12;2.13;;;1.92;;
63714;SDS011;49858;48.956;9.076;2022-07-29T06:50:38;0.60;;;0.50;;
63714;SDS011;49858;48.956;9.076;2022-07-29T06:53:05;0.68;;;0.68;;
63714;SDS011;49858;48.956;9.076;2022-07-29T06:55:32;0.60;;;0.60;;
63714;SDS011;49858;48.956;9.076;2022-07-29T06:57:58;1.08;;;0.57;;
63714;SDS011;49858;48.956;9.076;2022-07-29T07:00:25;0.50;;;0.50;;
63714;SDS011;49858;48.956;9.076;2022-07-29T07:02:53;0.57;;;0.43;;
63714;SDS011;49858;48.956;9.076;2022-07-29T07:05:19;0.93;;;0.70;;
63714;SDS011;49858;48.956;9.076;2022-07-29T07:07:46;2.30;;;1.10;;
63714;SDS011;49858;48.956;9.076;2022-07-29T07:10:13;0.45;;;0.45;;
63714;SDS011;49858;48.956;9.076;2022-07-29T07:12:40;0.75;;;0.75;;
63714;SDS011;49858;48.956;9.076;2022-07-29T07:15:07;0.20;;;0.20;;
63714;SDS011;49858;48.956;9.076;2022-07-29T07:17:34;0.73;;;0.38;;
63714;SDS011;49858;48.956;9.076;2022-07-29T07:20:02;1.77;;;1.67;;
63714;SDS011;49858;48.956;9.076;2022-07-29T07:22:30;2.50;;;0.93;;
63714;SDS011;49858;48.956;9.076;2022-07-29T07:24:56;0.60;;;0.50;;
63714;SDS011;49858;48.956;9.076;2022-07-29T07:27:23;1.67;;;1.05;;
63714;SDS011;49858;48.956;9.076;2022-07-29T07:29:50;0.82;;;0.50;;
63714;SDS011;49858;48.956;9.076;2022-07-29T07:32:16;0.40;;;0.30;;
63714;SDS011;49858;48.956;9.076;2022-07-29T07:34:43;1.55;;;0.70;;
63714;SDS011;49858;48.956;9.076;2022-07-29T07:37:11;0.50;;;0.50;;
63714;SDS011;49858;48.956;9.076;2022-07-29T07:39:39;0.68;;;0.68;;
63714;SDS011;49858;48.956;9.076;2022-07-29T07:42:06;0.30;;;0.30;;
63714;SDS011;49858;48.956;9.076;2022-07-29T07:44:33;0.95;;;0.68;;
63714;SDS011;49858;48.956;9.076;2022-07-29T07:46:59;0.13;;;0.13;;
63714;SDS011;49858;48.956;9.076;2022-07-29T07:49:26;0.50;;;0.32;;
63714;SDS011;49858;48.956;9.076;2022-07-29T07:51:53;0.80;;;0.77;;
63714;SDS011;49858;48.956;9.076;2022-07-29T07:54:21;1.15;;;0.82;;
63714;SDS011;49858;48.956;9.076;2022-07-29T07:56:48;1.30;;;0.85;;
63714;SDS011;49858;48.956;9.076;2022-07-29T07:59:15;1.25;;;0.82;;
63714;SDS011;49858;48.956;9.076;2022-07-29T08:01:41;0.63;;;0.63;;
63714;SDS011;49858;48.956;9.076;2022-07-29T08:04:08;0.90;;;0.90;;
63714;SDS011;49858;48.956;9.076;2022-07-29T08:06:35;0.25;;;0.25;;
63714;SDS011;49858;48.956;9.076;2022-07-29T08:09:03;0.80;;;0.57;;
63714;SDS011;49858;48.956;9.076;2022-07-29T08:11:31;0.50;;;0.35;;
63714;SDS011;49858;48.956;9.076;2022-07-29T08:13:58;2.95;;;1.13;;
63714;SDS011;49858;48.956;9.076;2022-07-29T08:16:26;0.40;;;0.20;;
63714;SDS011;49858;48.956;9.076;2022-07-29T08:18:53;0.45;;;0.38;;
63714;SDS011;49858;48.956;9.076;2022-07-29T08:21:22;1.00;;;0.30;;
63714;SDS011;49858;48.956;9.076;2022-07-29T08:23:51;0.25;;;0.25;;
63714;SDS011;49858;48.956;9.076;2022-07-29T08:26:40;1.13;;;0.70;;
63714;SDS011;49858;48.956;9.076;2022-07-29T08:29:07;0.82;;;0.82;;
63714;SDS011;49858;48.956;9.076;2022-07-29T08:31:34;0.47;;;0.40;;
63714;SDS011;49858;48.956;9.076;2022-07-29T08:34:01;0.50;;;0.32;;
63714;SDS011;49858;48.956;9.076;2022-07-29T08:36:29;0.63;;;0.43;;
63714;SDS011;49858;48.956;9.076;2022-07-29T08:38:56;0.73;;;0.60;;
63714;SDS011;49858;48.956;9.076;2022-07-29T08:41:23;0.57;;;0.30;;
63714;SDS011;49858;48.956;9.076;2022-07-29T08:43:51;0.60;;;0.25;;
63714;SDS011;49858;48.956;9.076;2022-07-29T08:46:19;1.17;;;0.63;;
63714;SDS011;49858;48.956;9.076;2022-07-29T08:48:46;1.10;;;0.68;;
63714;SDS011;49858;48.956;9.076;2022-07-29T08:51:14;1.02;;;0.35;;
63714;SDS011;49858;48.956;9.076;2022-07-29T08:53:43;0.57;;;0.50;;
63714;SDS011;49858;48.956;9.076;2022-07-29T08:56:12;0.40;;;0.30;;
63714;SDS011;49858;48.956;9.076;2022-07-29T08:58:41;0.40;;;0.40;;
63714;SDS011;49858;48.956;9.076;2022-07-29T09:01:10;3.00;;;1.10;;
63714;SDS011;49858;48.956;9.076;2022-07-29T09:03:38;10.65;;;7.15;;
63714;SDS011;49858;48.956;9.076;2022-07-29T09:06:06;9.93;;;8.23;;
63714;SDS011;49858;48.956;9.076;2022-07-29T09:08:34;7.43;;;5.50;;
63714;SDS011;49858;48.956;9.076;2022-07-29T09:11:01;15.07;;;10.10;;
63714;SDS011;49858;48.956;9.076;2022-07-29T09:13:28;10.73;;;8.55;;
63714;SDS011;49858;48.956;9.076;2022-07-29T09:15:55;14.18;;;11.10;;
63714;SDS011;49858;48.956;9.076;2022-07-29T09:18:35;13.65;;;11.10;;
63714;SDS011;49858;48.956;9.076;2022-07-29T09:21:04;12.25;;;9.90;;
63714;SDS011;49858;48.956;9.076;2022-07-29T09:24:02;18.52;;;10.98;;
63714;SDS011;49858;48.956;9.076;2022-07-29T09:26:32;12.18;;;9.13;;
63714;SDS011;49858;48.956;9.076;2022-07-29T09:29:01;13.00;;;10.05;;
63714;SDS011;49858;48.956;9.076;2022-07-29T09:31:35;13.73;;;9.32;;
63714;SDS011;49858;48.956;9.076;2022-07-29T09:34:04;11.18;;;8.50;;
63714;SDS011;49858;48.956;9.076;2022-07-29T09:36:38;11.63;;;7.07;;
63714;SDS011;49858;48.956;9.076;2022-07-29T09:39:05;7.72;;;6.85;;
63714;SDS011;49858;48.956;9.076;2022-07-29T09:41:43;11.80;;;7.70;;
63714;SDS011;49858;48.956;9.076;2022-07-29T09:44:11;7.90;;;5.75;;
63714;SDS011;49858;48.956;9.076;2022-07-29T09:46:38;9.50;;;8.50;;
63714;SDS011;49858;48.956;9.076;2022-07-29T09:49:08;7.70;;;5.10;;
63714;SDS011;49858;48.956;9.076;2022-07-29T09:51:36;10.20;;;5.70;;
63714;SDS011;49858;48.956;9.076;2022-07-29T09:54:07;7.57;;;6.30;;
63714;SDS011;49858;48.956;9.076;2022-07-29T09:56:48;7.05;;;6.15;;
63714;SDS011;49858;48.956;9.076;2022-07-29T09:59:15;9.75;;;7.85;;
63714;SDS011;49858;48.956;9.076;2022-07-29T10:01:42;10.18;;;8.05;;
63714;SDS011;49858;48.956;9.076;2022-07-29T10:04:10;4.85;;;2.95;;
63714;SDS011;49858;48.956;9.076;2022-07-29T10:06:41;6.45;;;4.75;;
63714;SDS011;49858;48.956;9.076;2022-07-29T10:09:22;5.18;;;4.68;;
63714;SDS011;49858;48.956;9.076;2022-07-29T10:12:02;6.82;;;4.80;;
63714;SDS011;49858;48.956;9.076;2022-07-29T10:14:29;6.25;;;4.88;;
63714;SDS011;49858;48.956;9.076;2022-07-29T10:16:57;8.75;;;4.40;;
63714;SDS011;49858;48.956;9.076;2022-07-29T10:19:26;8.35;;;5.03;;
63714;SDS011;49858;48.956;9.076;2022-07-29T10:21:55;5.22;;;4.22;;
63714;SDS011;49858;48.956;9.076;2022-07-29T10:24:23;7.45;;;4.43;;
63714;SDS011;49858;48.956;9.076;2022-07-29T10:26:52;4.80;;;4.30;;
63714;SDS011;49858;48.956;9.076;2022-07-29T10:29:20;5.75;;;4.20;;
63714;SDS011;49858;48.956;9.076;2022-07-29T10:31:48;5.10;;;4.00;;
63714;SDS011;49858;48.956;9.076;2022-07-29T10:34:20;7.43;;;4.05;;
63714;SDS011;49858;48.956;9.076;2022-07-29T10:37:00;6.45;;;3.75;;
63714;SDS011;49858;48.956;9.076;2022-07-29T10:39:38;6.80;;;4.40;;
63714;SDS011;49858;48.956;9.076;2022-07-29T10:42:16;5.55;;;3.42;;
63714;SDS011;49858;48.956;9.076;2022-07-29T10:44:45;8.23;;;4.00;;
63714;SDS011;49858;48.956;9.076;2022-07-29T10:47:19;5.32;;;3.88;;
63714;SDS011;49858;48.956;9.076;2022-07-29T10:49:54;4.82;;;3.28;;
63714;SDS011;49858;48.956;9.076;2022-07-29T10:52:24;3.47;;;3.08;;
63714;SDS011;49858;48.956;9.076;2022-07-29T10:54:53;4.55;;;3.65;;
63714;SDS011;49858;48.956;9.076;2022-07-29T10:57:24;4.35;;;3.35;;
63714;SDS011;49858;48.956;9.076;2022-07-29T11:02:56;5.07;;;4.00;;
63714;SDS011;49858;48.956;9.076;2022-07-29T11:05:24;7.65;;;3.85;;
63714;SDS011;49858;48.956;9.076;2022-07-29T11:10:46;4.95;;;3.60;;
63714;SDS011;49858;48.956;9.076;2022-07-29T11:16:12;4.20;;;3.40;;
63714;SDS011;49858;48.956;9.076;2022-07-29T11:21:40;5.20;;;3.25;;
63714;SDS011;49858;48.956;9.076;2022-07-29T11:24:13;5.57;;;3.22;;
63714;SDS011;49858;48.956;9.076;2022-07-29T11:26:40;6.35;;;3.28;;
63714;SDS011;49858;48.956;9.076;2022-07-29T11:29:14;4.22;;;2.90;;
63714;SDS011;49858;48.956;9.076;2022-07-29T11:31:46;4.60;;;3.80;;
63714;SDS011;49858;48.956;9.076;2022-07-29T11:34:20;5.65;;;3.15;;
63714;SDS011;49858;48.956;9.076;2022-07-29T11:39:46;8.13;;;3.45;;
63714;SDS011;49858;48.956;9.076;2022-07-29T11:42:37;4.63;;;3.40;;
63714;SDS011;49858;48.956;9.076;2022-07-29T11:45:09;5.25;;;3.85;;
63714;SDS011;49858;48.956;9.076;2022-07-29T11:47:39;4.90;;;3.45;;
63714;SDS011;49858;48.956;9.076;2022-07-29T11:50:07;11.85;;;3.92;;
63714;SDS011;49858;48.956;9.076;2022-07-29T11:52:36;4.30;;;3.47;;
63714;SDS011;49858;48.956;9.076;2022-07-29T11:55:10;5.35;;;3.33;;
63714;SDS011;49858;48.956;9.076;2022-07-29T11:57:45;5.63;;;3.42;;
63714;SDS011;49858;48.956;9.076;2022-07-29T12:00:16;6.80;;;3.60;;
63714;SDS011;49858;48.956;9.076;2022-07-29T12:02:48;7.25;;;3.78;;
63714;SDS011;49858;48.956;9.076;2022-07-29T12:05:14;6.03;;;3.65;;
63714;SDS011;49858;48.956;9.076;2022-07-29T12:07:41;6.30;;;3.60;;
63714;SDS011;49858;48.956;9.076;2022-07-29T12:10:10;5.32;;;3.60;;
63714;SDS011;49858;48.956;9.076;2022-07-29T12:12:37;5.35;;;3.25;;
63714;SDS011;49858;48.956;9.076;2022-07-29T12:15:14;5.25;;;3.30;;
63714;SDS011;49858;48.956;9.076;2022-07-29T12:17:43;4.35;;;3.75;;
63714;SDS011;49858;48.956;9.076;2022-07-29T12:20:10;4.30;;;2.60;;
63714;SDS011;49858;48.956;9.076;2022-07-29T12:22:39;4.32;;;3.45;;
63714;SDS011;49858;48.956;9.076;2022-07-29T12:25:07;6.38;;;4.53;;
63714;SDS011;49858;48.956;9.076;2022-07-29T12:27:37;6.78;;;4.95;;
63714;SDS011;49858;48.956;9.076;2022-07-29T12:30:05;6.68;;;5.07;;
63714;SDS011;49858;48.956;9.076;2022-07-29T12:32:34;8.52;;;4.75;;
63714;SDS011;49858;48.956;9.076;2022-07-29T12:35:04;5.35;;;3.85;;
63714;SDS011;49858;48.956;9.076;2022-07-29T12:37:33;5.05;;;4.32;;
63714;SDS011;49858;48.956;9.076;2022-07-29T12:40:02;5.70;;;4.53;;
63714;SDS011;49858;48.956;9.076;2022-07-29T12:42:31;7.72;;;4.82;;
63714;SDS011;49858;48.956;9.076;2022-07-29T12:44:58;5.70;;;4.57;;
63714;SDS011;49858;48.956;9.076;2022-07-29T12:47:26;7.75;;;4.15;;
63714;SDS011;49858;48.956;9.076;2022-07-29T12:50:07;8.27;;;4.68;;
63714;SDS011;49858;48.956;9.076;2022-07-29T12:52:34;8.68;;;4.10;;
63714;SDS011;49858;48.956;9.076;2022-07-29T12:55:01;4.10;;;3.60;;
63714;SDS011;49858;48.956;9.076;2022-07-29T12:57:28;3.55;;;2.95;;
63714;SDS011;49858;48.956;9.076;2022-07-29T13:00:02;8.70;;;3.72;;
63714;SDS011;49858;48.956;9.076;2022-07-29T13:02:30;4.18;;;3.40;;
63714;SDS011;49858;48.956;9.076;2022-07-29T13:04:57;4.65;;;3.60;;
63714;SDS011;49858;48.956;9.076;2022-07-29T13:07:25;5.75;;;3.58;;
63714;SDS011;49858;48.956;9.076;2022-07-29T13:09:54;7.53;;;3.72;;
63714;SDS011;49858;48.956;9.076;2022-07-29T13:12:36;6.75;;;4.07;;
63714;SDS011;49858;48.956;9.076;2022-07-29T13:15:13;3.88;;;3.03;;
63714;SDS011;49858;48.956;9.076;2022-07-29T13:17:41;5.78;;;2.88;;
63714;SDS011;49858;48.956;9.076;2022-07-29T13:20:09;8.02;;;3.60;;
63714;SDS011;49858;48.956;9.076;2022-07-29T13:22:39;5.18;;;3.63;;
63714;SDS011;49858;48.956;9.076;2022-07-29T13:25:07;5.63;;;3.92;;
63714;SDS011;49858;48.956;9.076;2022-07-29T13:27:36;5.35;;;3.90;;
63714;SDS011;49858;48.956;9.076;2022-07-29T13:30:05;5.32;;;4.00;;
63714;SDS011;49858;48.956;9.076;2022-07-29T13:32:35;4.68;;;3.80;;
63714;SDS011;49858;48.956;9.076;2022-07-29T13:35:03;3.53;;;2.72;;
63714;SDS011;49858;48.956;9.076;2022-07-29T13:37:32;3.95;;;2.08;;
63714;SDS011;49858;48.956;9.076;2022-07-29T13:40:00;5.13;;;3.33;;
63714;SDS011;49858;48.956;9.076;2022-07-29T13:42:28;5.80;;;3.35;;
63714;SDS011;49858;48.956;9.076;2022-07-29T13:44:55;4.55;;;2.38;;
63714;SDS011;49858;48.956;9.076;2022-07-29T13:47:21;5.35;;;3.00;;
63714;SDS011;49858;48.956;9.076;2022-07-29T13:49:50;6.38;;;2.80;;
63714;SDS011;49858;48.956;9.076;2022-07-29T13:52:18;4.88;;;3.33;;
63714;SDS011;49858;48.956;9.076;2022-07-29T13:54:45;4.05;;;3.08;;
63714;SDS011;49858;48.956;9.076;2022-07-29T13:57:12;3.80;;;3.05;;
63714;SDS011;49858;48.956;9.076;2022-07-29T13:59:39;6.00;;;3.13;;
63714;SDS011;49858;48.956;9.076;2022-07-29T14:02:07;5.40;;;2.70;;
63714;SDS011;49858;48.956;9.076;2022-07-29T14:04:35;5.82;;;3.28;;
63714;SDS011;49858;48.956;9.076;2022-07-29T14:07:03;2.90;;;2.40;;
63714;SDS011;49858;48.956;9.076;2022-07-29T14:09:30;3.78;;;2.75;;
63714;SDS011;49858;48.956;9.076;2022-07-29T14:11:57;6.28;;;2.95;;
63714;SDS011;49858;48.956;9.076;2022-07-29T14:14:23;2.80;;;1.85;;
63714;SDS011;49858;48.956;9.076;2022-07-29T14:16:50;5.22;;;3.42;;
63714;SDS011;49858;48.956;9.076;2022-07-29T14:19:17;4.25;;;2.78;;
63714;SDS011;49858;48.956;9.076;2022-07-29T14:21:43;5.25;;;3.17;;
63714;SDS011;49858;48.956;9.076;2022-07-29T14:24:11;3.30;;;3.00;;
63714;SDS011;49858;48.956;9.076;2022-07-29T14:26:38;3.33;;;2.13;;
63714;SDS011;49858;48.956;9.076;2022-07-29T14:29:05;7.00;;;3.47;;
63714;SDS011;49858;48.956;9.076;2022-07-29T14:31:32;3.85;;;3.20;;
63714;SDS011;49858;48.956;9.076;2022-07-29T14:33:59;12.82;;;3.60;;
63714;SDS011;49858;48.956;9.076;2022-07-29T14:36:25;5.28;;;3.08;;
63714;SDS011;49858;48.956;9.076;2022-07-29T14:38:52;5.10;;;2.67;;
63714;SDS011;49858;48.956;9.076;2022-07-29T14:41:20;4.68;;;2.88;;
63714;SDS011;49858;48.956;9.076;2022-07-29T14:43:47;6.35;;;2.67;;
63714;SDS011;49858;48.956;9.076;2022-07-29T14:46:13;5.32;;;2.65;;
63714;SDS011;49858;48.956;9.076;2022-07-29T14:48:40;7.10;;;2.33;;
63714;SDS011;49858;48.956;9.076;2022-07-29T14:51:07;3.30;;;2.08;;
63714;SDS011;49858;48.956;9.076;2022-07-29T14:53:33;2.50;;;1.70;;
63714;SDS011;49858;48.956;9.076;2022-07-29T14:56:00;2.35;;;1.70;;
63714;SDS011;49858;48.956;9.076;2022-07-29T14:58:28;4.53;;;1.98;;
63714;SDS011;49858;48.956;9.076;2022-07-29T15:00:55;2.95;;;2.22;;
63714;SDS011;49858;48.956;9.076;2022-07-29T15:03:21;2.78;;;2.13;;
63714;SDS011;49858;48.956;9.076;2022-07-29T15:05:48;5.20;;;2.33;;
63714;SDS011;49858;48.956;9.076;2022-07-29T15:08:15;2.85;;;1.55;;
63714;SDS011;49858;48.956;9.076;2022-07-29T15:10:42;2.72;;;2.00;;
63714;SDS011;49858;48.956;9.076;2022-07-29T15:13:08;4.22;;;2.35;;
63714;SDS011;49858;48.956;9.076;2022-07-29T15:15:36;3.45;;;1.95;;